EmailTwitter


Surface observations / United Kingdom / EGLL (03772)

Regions: Quebec | Canada | USA | Europe | France | UK | Elsewhere
Station
Display
Info & Location for EGLL (03772) | Help decoding METAR

Weather Conditions observed on 2019/02/21 at 05:50 UTC at LONDON/HEATHROW, UK (EGLL)

Sky conditions: partly cloudy.

Temperature: 8.0 Celsius.

Dewpoint: 7.0 Celsius.

Relative Humidity: 93%

Winds: Southwest at 11 km/h or 6 knots.

Mean Sea level Pressure: 102.30 kilopascals.

Horizontal visibility: 6.21 statute miles or 9.94 kilometers.

Height of the Ceiling: 335 metres ( 1100 feet ).

Coded METAR:

EGLL 210550Z AUTO 21006KT 9999 BKN011 08/07 Q1023 TEMPO SCT011=